createdAt,value
2023-04-15T00:01:40.566Z,96.35
2023-04-15T00:04:07.695Z,96.36
2023-04-15T00:06:34.575Z,96.72
2023-04-15T00:09:01.782Z,96.39
2023-04-15T00:11:29.221Z,96.27
2023-04-15T00:13:56.057Z,95.78
2023-04-15T00:16:23.269Z,94.95
2023-04-15T00:18:50.196Z,95.23
2023-04-15T00:21:17.001Z,95.42
2023-04-15T00:23:44.423Z,95.59
2023-04-15T00:26:11.320Z,96.33
2023-04-15T00:28:38.955Z,96.46
2023-04-15T00:31:06.069Z,96.35
2023-04-15T00:33:33.136Z,95.86
2023-04-15T00:36:00.114Z,96.27
2023-04-15T00:38:27.172Z,96.40
2023-04-15T00:40:54.219Z,96.94
2023-04-15T00:43:22.499Z,97.20
2023-04-15T00:45:50.312Z,96.66
2023-04-15T00:48:17.812Z,96.09
2023-04-15T00:50:44.800Z,95.84
2023-04-15T00:53:11.705Z,95.60
2023-04-15T00:55:38.807Z,95.97
2023-04-15T00:58:05.679Z,95.37
2023-04-15T01:00:32.675Z,95.50
2023-04-15T01:02:59.687Z,96.13
2023-04-15T01:05:27.369Z,96.22
2023-04-15T01:07:55.433Z,95.73
2023-04-15T01:10:22.481Z,95.43
2023-04-15T01:12:49.387Z,95.83
2023-04-15T01:15:16.604Z,95.58
2023-04-15T01:17:43.970Z,95.76
2023-04-15T01:20:12.553Z,95.67
2023-04-15T01:22:39.892Z,95.12
2023-04-15T01:25:10.199Z,94.66
2023-04-15T01:27:39.366Z,95.08
2023-04-15T01:30:07.494Z,94.79
2023-04-15T01:32:34.552Z,95.25
2023-04-15T01:35:01.767Z,94.99
2023-04-15T01:37:29.420Z,95.36
2023-04-15T01:39:57.673Z,95.31
2023-04-15T01:42:24.677Z,95.89
2023-04-15T01:44:51.478Z,95.52
2023-04-15T01:47:18.277Z,94.65
2023-04-15T01:49:45.075Z,94.32
2023-04-15T01:52:12.030Z,94.85
2023-04-15T01:54:38.871Z,95.12
2023-04-15T01:57:06.030Z,95.23
2023-04-15T01:59:32.855Z,94.67
2023-04-15T02:02:00.181Z,94.71
2023-04-15T02:04:27.078Z,94.79
2023-04-15T02:06:53.991Z,94.64
2023-04-15T02:09:20.867Z,93.36
2023-04-15T02:11:47.812Z,93.64
2023-04-15T02:14:14.817Z,94.19
2023-04-15T02:16:41.568Z,94.72
2023-04-15T02:19:09.635Z,94.15
2023-04-15T02:21:36.435Z,93.19
2023-04-15T02:24:03.303Z,93.05
2023-04-15T02:26:32.926Z,93.10
2023-04-15T02:29:00.155Z,93.41
2023-04-15T02:31:27.253Z,93.42
2023-04-15T02:33:54.093Z,93.45
2023-04-15T02:36:21.878Z,93.89
2023-04-15T02:38:48.782Z,94.09
2023-04-15T02:41:15.967Z,93.11
2023-04-15T02:43:42.793Z,93.09
2023-04-15T02:46:13.124Z,94.03
2023-04-15T02:48:39.970Z,94.45
2023-04-15T02:51:17.038Z,94.13
2023-04-15T02:53:43.873Z,94.17
2023-04-15T02:56:11.620Z,94.41
2023-04-15T02:58:38.487Z,94.55
2023-04-15T03:01:05.449Z,94.52
2023-04-15T03:03:32.416Z,94.11
2023-04-15T03:05:59.444Z,94.41
2023-04-15T03:08:26.560Z,94.41
2023-04-15T03:10:54.102Z,94.37
2023-04-15T03:13:21.615Z,93.71
2023-04-15T03:15:48.846Z,93.91
2023-04-15T03:18:15.876Z,94.24
2023-04-15T03:20:42.870Z,94.48
2023-04-15T03:23:09.693Z,95.00
2023-04-15T03:25:37.752Z,94.71
2023-04-15T03:28:04.620Z,94.28
2023-04-15T03:30:31.869Z,94.25
2023-04-15T03:32:58.953Z,94.82
2023-04-15T03:35:25.868Z,94.67
2023-04-15T03:37:52.807Z,94.39
2023-04-15T03:40:21.973Z,94.64
2023-04-15T03:42:48.773Z,94.99
2023-04-15T03:45:15.891Z,94.89
2023-04-15T03:47:42.872Z,94.55
2023-04-15T03:50:09.939Z,94.50
2023-04-15T03:52:36.688Z,94.90
2023-04-15T03:55:03.454Z,95.26
2023-04-15T03:57:30.316Z,95.16
2023-04-15T03:59:57.067Z,94.67
2023-04-15T04:02:24.025Z,94.68
2023-04-15T04:04:51.189Z,94.56
2023-04-15T04:07:18.245Z,94.39
2023-04-15T04:09:47.026Z,94.72
2023-04-15T04:12:14.288Z,94.43
2023-04-15T04:14:41.087Z,94.47
2023-04-15T04:17:08.182Z,95.04
2023-04-15T04:19:37.678Z,94.60
2023-04-15T04:22:04.442Z,94.51
2023-04-15T04:24:31.893Z,95.07
2023-04-15T04:26:58.651Z,95.49
2023-04-15T04:29:25.371Z,95.03
2023-04-15T04:31:52.204Z,94.17
2023-04-15T04:34:18.988Z,94.69
2023-04-15T04:36:45.896Z,94.07
2023-04-15T04:39:12.736Z,93.93
2023-04-15T04:41:39.528Z,94.21
2023-04-15T04:44:06.387Z,94.30
2023-04-15T04:46:33.185Z,94.13
2023-04-15T04:49:00.075Z,94.76
2023-04-15T04:51:26.936Z,94.57
2023-04-15T04:53:54.201Z,95.13
2023-04-15T04:56:20.992Z,95.35
2023-04-15T04:58:47.861Z,95.55
2023-04-15T05:01:14.995Z,95.49
2023-04-15T05:03:42.196Z,95.89
2023-04-15T05:06:09.143Z,95.98
2023-04-15T05:08:37.289Z,95.60
2023-04-15T05:11:04.869Z,95.54
2023-04-15T05:13:31.928Z,94.95
2023-04-15T05:15:58.746Z,95.15
2023-04-15T05:18:29.437Z,94.81
2023-04-15T05:20:56.382Z,95.26
2023-04-15T05:23:23.368Z,95.47
2023-04-15T05:25:50.216Z,95.19
2023-04-15T05:28:17.347Z,95.26
2023-04-15T05:30:44.356Z,95.37
2023-04-15T05:33:11.269Z,95.67
2023-04-15T05:35:38.182Z,95.79
2023-04-15T05:38:05.099Z,95.63
2023-04-15T05:40:35.212Z,95.35
2023-04-15T05:43:02.195Z,95.45
2023-04-15T05:45:29.082Z,95.74
2023-04-15T05:47:56.055Z,95.83
2023-04-15T05:50:25.249Z,96.06
2023-04-15T05:52:52.062Z,95.61
2023-04-15T05:55:18.904Z,95.27
2023-04-15T05:57:46.079Z,94.99
2023-04-15T06:00:13.463Z,95.25
2023-04-15T06:02:40.443Z,95.27
2023-04-15T06:05:10.209Z,95.13
2023-04-15T06:07:37.483Z,94.48
2023-04-15T06:10:04.789Z,94.49
2023-04-15T06:12:31.589Z,94.49
2023-04-15T06:14:59.997Z,94.46
2023-04-15T06:17:27.144Z,95.10
2023-04-15T06:19:56.971Z,95.24
2023-04-15T06:22:24.459Z,94.90
2023-04-15T06:24:51.884Z,94.40
2023-04-15T06:27:19.449Z,94.61
2023-04-15T06:29:46.599Z,94.46
2023-04-15T06:32:13.430Z,94.48
2023-04-15T06:34:40.247Z,94.79
2023-04-15T06:37:07.143Z,94.53
2023-04-15T06:39:34.077Z,94.20
2023-04-15T06:42:01.920Z,93.60
2023-04-15T06:44:30.088Z,93.01
2023-04-15T06:46:57.987Z,93.24
2023-04-15T06:49:24.768Z,93.25
2023-04-15T06:51:51.971Z,92.94
2023-04-15T06:54:18.926Z,93.45
2023-04-15T06:56:46.004Z,93.15
2023-04-15T06:59:13.152Z,92.90
2023-04-15T07:01:41.155Z,92.63
2023-04-15T07:04:08.076Z,92.44
2023-04-15T07:06:35.909Z,91.09
2023-04-15T07:09:04.010Z,91.85
2023-04-15T07:11:31.219Z,91.01
2023-04-15T07:13:58.304Z,91.31
2023-04-15T07:16:27.158Z,90.60
2023-04-15T07:18:56.222Z,90.62
2023-04-15T07:21:23.128Z,90.69
2023-04-15T07:23:49.936Z,91.14
2023-04-15T07:26:16.750Z,91.41
2023-04-15T07:28:43.841Z,91.60
2023-04-15T07:31:10.879Z,91.33
2023-04-15T07:33:37.914Z,91.61
2023-04-15T07:36:04.759Z,90.81
2023-04-15T07:38:31.640Z,91.04
2023-04-15T07:40:58.709Z,90.55
2023-04-15T07:43:25.588Z,90.10
2023-04-15T07:45:52.430Z,90.47
2023-04-15T07:48:19.329Z,90.82
2023-04-15T07:50:46.279Z,91.10
2023-04-15T07:53:13.880Z,91.11
2023-04-15T07:55:40.936Z,90.75
2023-04-15T07:58:07.739Z,91.14
2023-04-15T08:00:34.611Z,91.25
2023-04-15T08:03:02.024Z,90.64
2023-04-15T08:05:29.273Z,90.83
2023-04-15T08:07:56.871Z,90.51
2023-04-15T08:10:23.846Z,91.19
2023-04-15T08:12:51.120Z,90.67
2023-04-15T08:15:18.082Z,89.79
2023-04-15T08:17:45.038Z,89.14
2023-04-15T08:20:12.165Z,89.31
2023-04-15T08:22:39.231Z,89.28
2023-04-15T08:25:06.228Z,88.96
2023-04-15T08:27:33.135Z,88.66
2023-04-15T08:30:02.734Z,88.85
2023-04-15T08:32:30.619Z,88.02
2023-04-15T08:34:57.542Z,87.23
2023-04-15T08:37:24.484Z,86.57
2023-04-15T08:39:51.329Z,87.64
2023-04-15T08:42:20.132Z,88.03
2023-04-15T08:44:48.665Z,87.40
2023-04-15T08:47:18.577Z,87.51
2023-04-15T08:49:45.460Z,86.26
2023-04-15T08:52:12.677Z,86.49
2023-04-15T08:54:39.989Z,86.92
2023-04-15T08:57:07.156Z,87.16
2023-04-15T08:59:34.009Z,87.56
2023-04-15T09:02:01.541Z,87.30
2023-04-15T09:04:28.785Z,86.51
2023-04-15T09:06:55.588Z,86.39
2023-04-15T09:09:23.027Z,86.52
2023-04-15T09:11:51.735Z,86.23
2023-04-15T09:14:18.839Z,86.31
2023-04-15T09:16:55.892Z,85.78
2023-04-15T09:19:23.611Z,85.75
2023-04-15T09:21:51.631Z,85.89
2023-04-15T09:24:18.650Z,85.79
2023-04-15T09:26:45.762Z,85.43
2023-04-15T09:29:14.233Z,84.77
2023-04-15T09:31:42.078Z,84.09
2023-04-15T09:34:09.090Z,83.63
2023-04-15T09:36:52.308Z,84.21
2023-04-15T09:39:19.256Z,83.93
2023-04-15T09:41:46.407Z,84.11
2023-04-15T09:44:23.294Z,84.48
2023-04-15T09:46:50.161Z,84.65
2023-04-15T09:49:18.275Z,84.57
2023-04-15T09:51:57.623Z,83.29
2023-04-15T09:54:35.390Z,83.55
2023-04-15T09:57:06.109Z,83.54
2023-04-15T09:59:33.014Z,83.45
2023-04-15T10:02:00.159Z,84.04
2023-04-15T10:04:28.698Z,84.44
2023-04-15T10:06:56.372Z,84.72
2023-04-15T10:09:23.305Z,84.84
2023-04-15T10:11:50.801Z,84.40
2023-04-15T10:14:19.151Z,84.31
2023-04-15T10:16:49.367Z,84.71
2023-04-15T10:19:19.566Z,84.06
2023-04-15T10:21:46.972Z,82.54
2023-04-15T10:24:17.010Z,82.16
2023-04-15T10:26:44.932Z,82.19
2023-04-15T10:29:12.123Z,82.09
2023-04-15T10:31:39.313Z,80.91
2023-04-15T10:34:06.929Z,81.12
2023-04-15T10:36:33.819Z,80.37
2023-04-15T10:39:00.887Z,79.25
2023-04-15T10:41:31.608Z,79.61
2023-04-15T10:44:02.913Z,79.56
2023-04-15T10:46:31.565Z,79.47
2023-04-15T10:48:58.514Z,80.00
2023-04-15T10:51:32.757Z,80.06
2023-04-15T10:54:00.514Z,79.88
2023-04-15T10:56:29.072Z,80.10
2023-04-15T10:58:55.967Z,80.34
2023-04-15T11:01:23.646Z,79.96
2023-04-15T11:03:52.136Z,80.11
2023-04-15T11:06:19.254Z,80.01
2023-04-15T11:08:54.524Z,78.83
2023-04-15T11:11:21.408Z,79.28
2023-04-15T11:13:49.789Z,79.58
2023-04-15T11:16:16.920Z,79.14
2023-04-15T11:18:53.645Z,78.22
2023-04-15T11:21:24.927Z,77.75
2023-04-15T11:23:52.067Z,77.75
2023-04-15T11:26:19.008Z,77.61
2023-04-15T11:28:46.627Z,75.58
2023-04-15T11:31:14.730Z,75.50
2023-04-15T11:33:51.464Z,75.14
2023-04-15T11:36:18.373Z,75.07
2023-04-15T11:38:47.683Z,74.86
2023-04-15T11:41:14.631Z,74.54
2023-04-15T11:43:43.928Z,73.03
2023-04-15T11:46:11.048Z,72.57
2023-04-15T11:48:42.500Z,72.35
2023-04-15T11:51:09.359Z,72.10
2023-04-15T11:53:43.571Z,72.55
2023-04-15T11:56:11.953Z,73.00
2023-04-15T11:58:39.559Z,72.69
2023-04-15T12:01:07.246Z,72.37
2023-04-15T12:03:44.212Z,72.81
2023-04-15T12:06:16.953Z,72.58
2023-04-15T12:08:53.614Z,71.40
2023-04-15T12:11:21.934Z,71.99
2023-04-15T12:13:49.710Z,71.68
2023-04-15T12:16:18.561Z,72.57
2023-04-15T12:18:47.545Z,71.49
2023-04-15T12:21:14.596Z,69.81
2023-04-15T12:23:50.045Z,69.68
2023-04-15T12:26:17.605Z,68.88
2023-04-15T12:28:44.600Z,69.97
2023-04-15T12:31:12.308Z,70.26
2023-04-15T12:33:40.049Z,68.78
2023-04-15T12:36:07.169Z,68.78
2023-04-15T12:38:34.211Z,67.58
2023-04-15T12:41:01.251Z,67.13
2023-04-15T12:43:28.069Z,66.26
2023-04-15T12:45:55.058Z,66.31
2023-04-15T12:48:22.028Z,66.42
2023-04-15T12:50:48.915Z,66.18
2023-04-15T12:53:15.990Z,65.36
2023-04-15T12:55:42.852Z,65.60
2023-04-15T12:58:09.792Z,66.41
2023-04-15T13:00:37.011Z,66.65
2023-04-15T13:03:06.748Z,66.38
2023-04-15T13:05:34.116Z,65.68
2023-04-15T13:08:01.239Z,65.22
2023-04-15T13:10:28.779Z,64.22
2023-04-15T13:12:57.129Z,63.84
2023-04-15T13:15:24.090Z,63.24
2023-04-15T13:17:53.641Z,63.30
2023-04-15T13:20:20.599Z,63.46
2023-04-15T13:22:47.464Z,63.28
2023-04-15T13:25:14.435Z,63.00
2023-04-15T13:27:41.372Z,63.06
2023-04-15T13:30:11.077Z,62.54
2023-04-15T13:32:38.035Z,62.84
2023-04-15T13:35:05.572Z,62.23
2023-04-15T13:37:32.862Z,61.77
2023-04-15T13:39:59.789Z,61.15
2023-04-15T13:42:27.729Z,61.51
2023-04-15T13:44:55.029Z,59.57
2023-04-15T13:47:22.352Z,60.26
2023-04-15T13:49:49.290Z,60.83
2023-04-15T13:52:16.398Z,59.80
2023-04-15T13:54:43.412Z,60.02
2023-04-15T13:57:10.354Z,59.97
2023-04-15T13:59:37.276Z,60.99
2023-04-15T14:02:04.444Z,61.33
2023-04-15T14:04:32.656Z,60.91
2023-04-15T14:07:00.012Z,60.70
2023-04-15T14:09:28.099Z,60.09
2023-04-15T14:11:55.002Z,60.16
2023-04-15T14:14:21.956Z,59.60
2023-04-15T14:16:49.146Z,60.00
2023-04-15T14:19:16.248Z,60.81
2023-04-15T14:21:43.284Z,60.87
2023-04-15T14:24:10.381Z,61.16
2023-04-15T14:26:40.427Z,61.24
2023-04-15T14:29:07.313Z,61.39
2023-04-15T14:31:34.295Z,61.91
2023-04-15T14:34:01.381Z,61.21
2023-04-15T14:36:28.846Z,60.97
2023-04-15T14:38:59.088Z,59.36
2023-04-15T14:41:26.198Z,59.68
2023-04-15T14:43:53.100Z,59.38
2023-04-15T14:46:20.169Z,58.94
2023-04-15T14:48:47.005Z,58.33
2023-04-15T14:51:13.886Z,57.50
2023-04-15T14:53:40.913Z,57.38
2023-04-15T14:56:11.074Z,57.70
2023-04-15T14:58:38.058Z,57.99
2023-04-15T15:01:05.038Z,58.32
2023-04-15T15:03:32.144Z,57.44
2023-04-15T15:05:59.342Z,57.27
2023-04-15T15:08:26.423Z,57.62
2023-04-15T15:10:53.333Z,57.53
2023-04-15T15:13:20.454Z,58.05
2023-04-15T15:15:49.801Z,58.54
2023-04-15T15:18:19.434Z,59.03
2023-04-15T15:20:46.558Z,59.24
2023-04-15T15:23:13.471Z,59.00
2023-04-15T15:25:40.562Z,59.13
2023-04-15T15:28:07.585Z,59.06
2023-04-15T15:30:34.471Z,59.98
2023-04-15T15:33:01.344Z,59.72
2023-04-15T15:35:28.333Z,59.61
2023-04-15T15:37:55.540Z,60.08
2023-04-15T15:40:22.432Z,60.82
2023-04-15T15:42:51.260Z,60.50
2023-04-15T15:45:18.380Z,60.73
2023-04-15T15:47:45.373Z,60.77
2023-04-15T15:50:13.403Z,59.98
2023-04-15T15:52:40.392Z,59.29
2023-04-15T15:55:07.789Z,59.13
2023-04-15T15:57:34.795Z,59.37
2023-04-15T16:00:11.312Z,59.98
2023-04-15T16:05:09.214Z,59.36
2023-04-15T16:07:36.448Z,58.13
2023-04-15T16:10:03.275Z,58.26
2023-04-15T16:12:30.066Z,57.84
2023-04-15T16:14:57.058Z,56.84
2023-04-15T16:17:24.057Z,56.43
2023-04-15T16:19:58.684Z,56.11
2023-04-15T16:22:28.032Z,55.86
2023-04-15T16:24:54.960Z,55.54
2023-04-15T16:27:21.928Z,55.20
2023-04-15T16:29:48.880Z,54.20
2023-04-15T16:32:17.191Z,54.21
2023-04-15T16:34:44.158Z,54.85
2023-04-15T16:37:11.093Z,54.75
2023-04-15T16:39:38.158Z,54.18
2023-04-15T16:42:05.271Z,54.65
2023-04-15T16:44:32.430Z,54.34
2023-04-15T16:46:59.858Z,54.98
2023-04-15T16:49:29.309Z,54.68
2023-04-15T16:51:56.273Z,54.25
2023-04-15T16:54:23.345Z,55.21
2023-04-15T16:56:50.289Z,56.96
2023-04-15T16:59:17.594Z,58.51
2023-04-15T17:01:44.685Z,58.57
2023-04-15T17:04:11.873Z,58.76
2023-04-15T17:06:42.450Z,59.50
2023-04-15T17:09:09.652Z,59.77
2023-04-15T17:11:38.791Z,59.78
2023-04-15T17:14:06.221Z,59.89
2023-04-15T17:16:33.227Z,60.29
2023-04-15T17:19:00.151Z,60.58
2023-04-15T17:21:27.776Z,60.39
2023-04-15T17:23:55.091Z,60.17
2023-04-15T17:26:22.685Z,60.26
2023-04-15T17:28:49.684Z,60.25
2023-04-15T17:31:16.647Z,60.69
2023-04-15T17:33:56.353Z,61.22
2023-04-15T17:36:31.635Z,61.02
2023-04-15T17:38:58.601Z,60.83
2023-04-15T17:41:25.767Z,61.38
2023-04-15T17:43:52.661Z,62.30
2023-04-15T17:46:19.622Z,61.75
2023-04-15T17:48:46.777Z,61.24
2023-04-15T17:51:13.727Z,61.93
2023-04-15T17:53:40.659Z,62.21
2023-04-15T17:56:07.655Z,63.21
2023-04-15T17:58:34.649Z,63.69
2023-04-15T18:01:01.658Z,63.70
2023-04-15T18:03:28.759Z,64.28
2023-04-15T18:05:56.356Z,64.73
2023-04-15T18:08:23.371Z,65.16
2023-04-15T18:10:50.247Z,66.25
2023-04-15T18:13:17.314Z,66.32
2023-04-15T18:15:45.681Z,67.55
2023-04-15T18:18:14.214Z,67.57
2023-04-15T18:20:41.484Z,67.30
2023-04-15T18:23:08.635Z,67.61
2023-04-15T18:25:35.765Z,68.17
2023-04-15T18:28:05.811Z,68.19
2023-04-15T18:30:32.729Z,68.15
2023-04-15T18:32:59.768Z,67.96
2023-04-15T18:35:26.898Z,67.73
2023-04-15T18:37:53.772Z,68.30
2023-04-15T18:40:20.738Z,68.32
2023-04-15T18:42:47.699Z,68.82
2023-04-15T18:45:14.682Z,69.26
2023-04-15T18:47:42.179Z,69.89
2023-04-15T18:50:09.339Z,70.15
2023-04-15T18:52:36.364Z,71.83
2023-04-15T18:55:03.742Z,71.43
2023-04-15T18:57:34.812Z,71.44
2023-04-15T19:00:04.901Z,71.26
2023-04-15T19:02:31.957Z,71.46
2023-04-15T19:04:58.961Z,71.06
2023-04-15T19:07:25.845Z,71.01
2023-04-15T19:09:53.331Z,71.59
2023-04-15T19:12:20.214Z,71.85
2023-04-15T19:14:47.086Z,72.10
2023-04-15T19:17:16.350Z,72.13
2023-04-15T19:19:43.928Z,72.31
2023-04-15T19:22:10.889Z,72.25
2023-04-15T19:24:37.749Z,72.52
2023-04-15T19:27:04.624Z,72.94
2023-04-15T19:29:31.522Z,73.25
2023-04-15T19:31:58.369Z,73.46
2023-04-15T19:34:25.454Z,73.02
2023-04-15T19:36:52.368Z,73.40
2023-04-15T19:39:20.021Z,73.23
2023-04-15T19:41:47.553Z,73.81
2023-04-15T19:44:14.587Z,74.14
2023-04-15T19:46:42.291Z,74.38
2023-04-15T19:49:09.168Z,74.22
2023-04-15T19:51:36.050Z,75.33
2023-04-15T19:54:03.045Z,75.05
2023-04-15T19:56:31.190Z,75.13
2023-04-15T19:59:00.126Z,75.48
2023-04-15T20:01:28.406Z,75.92
2023-04-15T20:03:55.633Z,75.68
2023-04-15T20:06:22.957Z,76.68
2023-04-15T20:08:50.105Z,76.88
2023-04-15T20:11:17.372Z,77.10
2023-04-15T20:13:44.292Z,77.93
2023-04-15T20:16:12.698Z,77.57
2023-04-15T20:18:39.747Z,78.01
2023-04-15T20:21:06.628Z,78.09
2023-04-15T20:23:35.548Z,78.78
2023-04-15T20:26:02.419Z,78.83
2023-04-15T20:28:29.328Z,78.63
2023-04-15T20:30:56.356Z,78.55
2023-04-15T20:33:23.354Z,78.40
2023-04-15T20:35:50.346Z,78.31
2023-04-15T20:38:17.328Z,78.70
2023-04-15T20:40:44.234Z,78.55
2023-04-15T20:43:11.241Z,78.52
2023-04-15T20:45:39.666Z,79.17
2023-04-15T20:48:06.669Z,79.86
2023-04-15T20:50:33.624Z,79.98
2023-04-15T20:53:00.644Z,80.36
2023-04-15T20:55:29.573Z,80.46
2023-04-15T20:57:58.605Z,79.99
2023-04-15T21:00:25.582Z,80.28
2023-04-15T21:02:52.684Z,80.79
2023-04-15T21:05:19.764Z,80.54
2023-04-15T21:07:46.773Z,80.29
2023-04-15T21:10:13.570Z,80.29
2023-04-15T21:12:41.470Z,80.73
2023-04-15T21:15:08.836Z,80.40
2023-04-15T21:17:35.920Z,80.48
2023-04-15T21:20:02.949Z,80.34
2023-04-15T21:22:29.892Z,80.15
2023-04-15T21:24:56.735Z,79.99
2023-04-15T21:27:23.578Z,80.38
2023-04-15T21:29:50.476Z,80.35
2023-04-15T21:32:17.369Z,80.74
2023-04-15T21:34:44.350Z,80.55
2023-04-15T21:37:11.201Z,80.63
2023-04-15T21:39:38.058Z,80.96
2023-04-15T21:42:05.011Z,80.58
2023-04-15T21:44:31.938Z,80.45
2023-04-15T21:46:59.258Z,80.52
2023-04-15T21:49:26.076Z,80.75
2023-04-15T21:51:52.882Z,81.20
2023-04-15T21:54:19.916Z,80.70
2023-04-15T21:56:48.021Z,80.59
2023-04-15T21:59:14.839Z,80.82
2023-04-15T22:01:41.656Z,80.94
2023-04-15T22:04:10.015Z,81.09
2023-04-15T22:06:36.933Z,80.82
2023-04-15T22:09:03.850Z,80.90
2023-04-15T22:11:31.224Z,81.20
2023-04-15T22:13:58.845Z,80.21
2023-04-15T22:16:26.863Z,79.98
2023-04-15T22:18:54.700Z,80.56
2023-04-15T22:21:21.575Z,80.50
2023-04-15T22:23:49.010Z,80.48
2023-04-15T22:26:15.961Z,80.90
2023-04-15T22:28:42.890Z,81.14
2023-04-15T22:31:10.225Z,81.35
2023-04-15T22:33:37.110Z,81.55
2023-04-15T22:36:04.003Z,82.34
2023-04-15T22:38:31.191Z,82.51
2023-04-15T22:40:58.630Z,82.67
2023-04-15T22:43:26.307Z,82.53
2023-04-15T22:45:55.357Z,82.46
2023-04-15T22:48:22.615Z,82.81
2023-04-15T22:50:49.782Z,82.46
2023-04-15T22:53:17.834Z,81.54
2023-04-15T22:55:45.769Z,81.49
2023-04-15T22:58:12.618Z,81.22
2023-04-15T23:00:39.571Z,81.55
2023-04-15T23:03:06.840Z,81.33
2023-04-15T23:05:34.347Z,81.21
2023-04-15T23:08:01.324Z,81.58
2023-04-15T23:10:28.331Z,81.65
2023-04-15T23:12:55.087Z,81.68
2023-04-15T23:15:21.904Z,78.64
2023-04-15T23:17:48.758Z,77.53
2023-04-15T23:20:16.646Z,77.11
2023-04-15T23:22:43.654Z,76.36
2023-04-15T23:25:10.437Z,75.62
2023-04-15T23:27:37.301Z,75.51
2023-04-15T23:30:04.557Z,75.42
2023-04-15T23:32:31.387Z,75.16
2023-04-15T23:34:58.289Z,74.47
2023-04-15T23:37:25.041Z,74.84
2023-04-15T23:39:51.895Z,75.44
2023-04-15T23:42:18.795Z,75.53
2023-04-15T23:44:45.692Z,75.53
2023-04-15T23:47:12.635Z,75.73
2023-04-15T23:49:41.163Z,75.91
2023-04-15T23:52:08.111Z,76.14
2023-04-15T23:54:34.976Z,76.25
2023-04-15T23:57:01.975Z,77.02
2023-04-15T23:59:28.767Z,77.38
